createdAt,value
2022-11-05T00:01:39.790Z,5.90
2022-11-05T00:04:30.625Z,5.90
2022-11-05T00:07:16.980Z,6.40
2022-11-05T00:09:45.994Z,6.55
2022-11-05T00:12:32.210Z,6.10
2022-11-05T00:15:17.650Z,6.80
2022-11-05T00:17:45.337Z,7.00
2022-11-05T00:20:13.868Z,7.05
2022-11-05T00:22:59.286Z,6.82
2022-11-05T00:25:29.832Z,7.93
2022-11-05T00:28:01.070Z,7.72
2022-11-05T00:30:28.875Z,7.93
2022-11-05T00:33:01.019Z,8.48
2022-11-05T00:35:28.667Z,8.50
2022-11-05T00:37:56.326Z,9.27
2022-11-05T00:40:24.005Z,9.10
2022-11-05T00:43:10.565Z,9.70
2022-11-05T00:45:38.643Z,10.10
2022-11-05T00:48:24.417Z,10.18
2022-11-05T00:50:52.152Z,9.90
2022-11-05T00:53:19.972Z,10.50
2022-11-05T00:55:47.690Z,10.57
2022-11-05T00:58:17.867Z,10.98
2022-11-05T01:00:46.242Z,11.18
2022-11-05T01:03:15.424Z,11.75
2022-11-05T01:05:44.105Z,12.07
2022-11-05T01:08:12.029Z,12.80
2022-11-05T01:10:42.959Z,12.73
2022-11-05T01:13:13.118Z,13.00
2022-11-05T01:15:42.735Z,14.10
2022-11-05T01:18:10.636Z,13.90
2022-11-05T01:20:38.419Z,14.38
2022-11-05T01:23:10.422Z,14.50
2022-11-05T01:25:41.304Z,14.98
2022-11-05T01:28:09.644Z,15.70
2022-11-05T01:30:38.708Z,15.45
2022-11-05T01:33:07.895Z,16.58
2022-11-05T01:35:35.849Z,16.73
2022-11-05T01:38:03.509Z,18.67
2022-11-05T01:40:31.285Z,18.45
2022-11-05T01:42:58.982Z,18.73
2022-11-05T01:45:27.258Z,19.77
2022-11-05T01:47:58.868Z,20.10
2022-11-05T01:50:43.787Z,20.75
2022-11-05T01:53:15.922Z,20.50
2022-11-05T01:55:47.033Z,21.52
2022-11-05T01:58:22.729Z,21.55
2022-11-05T02:00:50.386Z,21.17
2022-11-05T02:03:18.116Z,22.33
2022-11-05T02:05:47.154Z,23.38
2022-11-05T02:08:19.879Z,22.13
2022-11-05T02:10:47.634Z,22.60
2022-11-05T02:13:15.279Z,22.95
2022-11-05T02:15:50.294Z,23.95
2022-11-05T02:18:21.500Z,23.38
2022-11-05T02:20:54.395Z,23.45
2022-11-05T02:23:54.822Z,23.35
2022-11-05T02:26:51.084Z,23.88
2022-11-05T02:29:49.207Z,23.13
2022-11-05T02:32:22.548Z,24.58
2022-11-05T02:34:52.638Z,24.45
2022-11-05T02:37:26.407Z,24.05
2022-11-05T02:39:56.632Z,24.08
2022-11-05T02:42:29.282Z,24.60
2022-11-05T02:45:00.938Z,24.80
2022-11-05T02:47:32.931Z,25.50
2022-11-05T02:50:06.701Z,24.85
2022-11-05T02:52:36.989Z,22.85
2022-11-05T02:55:07.073Z,23.70
2022-11-05T02:57:36.265Z,23.48
2022-11-05T03:00:05.384Z,22.77
2022-11-05T03:02:34.467Z,22.42
2022-11-05T03:05:02.270Z,22.92
2022-11-05T03:07:33.682Z,22.90
2022-11-05T03:10:08.782Z,22.83
2022-11-05T03:12:42.549Z,21.80
2022-11-05T03:15:17.152Z,22.50
2022-11-05T03:17:52.316Z,21.70
2022-11-05T03:20:21.582Z,21.48
2022-11-05T03:22:52.696Z,21.13
2022-11-05T03:25:22.695Z,20.05
2022-11-05T03:27:53.155Z,20.00
2022-11-05T03:30:20.884Z,19.55
2022-11-05T03:32:53.744Z,19.35
2022-11-05T03:35:23.576Z,18.50
2022-11-05T03:37:54.174Z,17.95
2022-11-05T03:40:22.394Z,17.98
2022-11-05T03:42:53.095Z,17.42
2022-11-05T03:45:22.818Z,16.77
2022-11-05T03:47:51.919Z,16.33
2022-11-05T03:50:21.708Z,16.88
2022-11-05T03:52:52.156Z,15.75
2022-11-05T03:55:20.552Z,15.10
2022-11-05T03:57:48.228Z,15.77
2022-11-05T04:00:15.886Z,14.80
2022-11-05T04:02:43.688Z,14.52
2022-11-05T04:05:12.900Z,14.60
2022-11-05T04:07:58.483Z,13.57
2022-11-05T04:10:43.887Z,13.15
2022-11-05T04:13:31.749Z,13.05
2022-11-05T04:16:17.202Z,12.40
2022-11-05T04:18:44.851Z,12.50
2022-11-05T04:21:31.459Z,12.40
2022-11-05T04:24:11.340Z,11.80
2022-11-05T04:26:39.559Z,11.55
2022-11-05T04:29:24.746Z,11.52
2022-11-05T04:31:52.415Z,10.30
2022-11-05T04:34:21.903Z,10.68
2022-11-05T04:36:51.116Z,10.18
2022-11-05T04:39:19.010Z,9.85
2022-11-05T04:41:47.877Z,9.20
2022-11-05T04:44:16.114Z,9.30
2022-11-05T04:46:43.781Z,9.10
2022-11-05T04:49:11.470Z,8.50
2022-11-05T04:51:39.117Z,8.27
2022-11-05T04:54:08.095Z,8.18
2022-11-05T04:56:35.758Z,7.80
2022-11-05T04:59:03.413Z,7.53
2022-11-05T05:01:31.182Z,7.70
2022-11-05T05:03:58.927Z,7.05
2022-11-05T05:06:26.634Z,6.70
2022-11-05T05:08:54.290Z,7.10
2022-11-05T05:11:23.387Z,6.70
2022-11-05T05:13:51.110Z,7.05
2022-11-05T05:16:20.955Z,5.97
2022-11-05T05:18:48.754Z,5.97
2022-11-05T05:21:34.376Z,6.00
2022-11-05T05:24:02.037Z,5.80
2022-11-05T05:26:31.166Z,5.43
2022-11-05T05:28:59.025Z,5.00
2022-11-05T05:31:26.727Z,4.60
2022-11-05T05:33:54.677Z,4.82
2022-11-05T05:36:22.458Z,4.50
2022-11-05T05:38:50.118Z,4.28
2022-11-05T05:41:18.002Z,4.50
2022-11-05T05:43:46.976Z,4.20
2022-11-05T05:46:15.305Z,4.10
2022-11-05T05:48:43.127Z,3.83
2022-11-05T05:51:12.274Z,3.72
2022-11-05T05:53:39.955Z,3.88
2022-11-05T05:56:08.191Z,3.50
2022-11-05T05:58:36.826Z,3.38
2022-11-05T06:01:06.982Z,3.22
2022-11-05T06:03:34.641Z,3.13
2022-11-05T06:06:03.056Z,2.97
2022-11-05T06:08:30.907Z,3.22
2022-11-05T06:10:59.293Z,2.67
2022-11-05T06:13:27.193Z,2.65
2022-11-05T06:15:54.927Z,2.92
2022-11-05T06:18:23.905Z,2.70
2022-11-05T06:20:51.587Z,2.72
2022-11-05T06:23:19.208Z,2.70
2022-11-05T06:25:46.904Z,2.40
2022-11-05T06:28:14.554Z,2.50
2022-11-05T06:30:42.211Z,2.42
2022-11-05T06:33:10.137Z,2.40
2022-11-05T06:35:39.357Z,2.20
2022-11-05T06:38:07.038Z,2.08
2022-11-05T06:40:34.705Z,2.08
2022-11-05T06:43:02.353Z,2.15
2022-11-05T06:45:30.006Z,2.05
2022-11-05T06:47:57.841Z,2.15
2022-11-05T06:50:25.813Z,3.63
2022-11-05T06:52:58.099Z,1.80
2022-11-05T06:55:26.362Z,1.73
2022-11-05T06:57:54.071Z,1.80
2022-11-05T07:00:21.987Z,2.13
2022-11-05T07:02:49.805Z,5.05
2022-11-05T07:05:17.726Z,1.50
2022-11-05T07:07:45.977Z,1.60
2022-11-05T07:10:15.869Z,1.77
2022-11-05T07:12:43.629Z,1.52
2022-11-05T07:15:11.842Z,1.65
2022-11-05T07:17:39.683Z,1.35
2022-11-05T07:20:08.393Z,1.70
2022-11-05T07:22:36.399Z,1.45
2022-11-05T07:25:04.389Z,1.90
2022-11-05T07:27:37.630Z,1.60
2022-11-05T07:30:06.750Z,3.13
2022-11-05T07:32:38.334Z,1.58
2022-11-05T07:35:06.987Z,1.58
2022-11-05T07:37:34.737Z,1.60
2022-11-05T07:40:02.422Z,1.30
2022-11-05T07:42:30.105Z,2.33
2022-11-05T07:44:59.134Z,1.70
2022-11-05T07:47:26.843Z,1.45
2022-11-05T07:49:54.526Z,1.38
2022-11-05T07:52:22.158Z,1.02
2022-11-05T07:54:49.825Z,1.10
2022-11-05T07:57:17.696Z,1.10
2022-11-05T07:59:45.399Z,1.10
2022-11-05T08:02:14.567Z,1.35
2022-11-05T08:04:43.331Z,2.25
2022-11-05T08:07:10.989Z,1.20
2022-11-05T08:09:38.657Z,0.90
2022-11-05T08:12:07.373Z,1.10
2022-11-05T08:14:35.076Z,1.67
2022-11-05T08:17:02.776Z,1.50
2022-11-05T08:19:31.864Z,1.30
2022-11-05T08:21:59.548Z,1.52
2022-11-05T08:24:27.199Z,1.35
2022-11-05T08:26:54.870Z,1.45
2022-11-05T08:29:22.525Z,1.27
2022-11-05T08:31:50.182Z,1.15
2022-11-05T08:34:17.884Z,0.93
2022-11-05T08:36:47.209Z,1.08
2022-11-05T08:39:17.057Z,1.08
2022-11-05T08:41:45.567Z,1.10
2022-11-05T08:44:13.280Z,1.35
2022-11-05T08:46:41.848Z,1.65
2022-11-05T08:49:09.774Z,1.40
2022-11-05T08:51:37.526Z,1.08
2022-11-05T08:54:06.829Z,1.10
2022-11-05T08:56:34.846Z,2.25
2022-11-05T08:59:02.507Z,1.00
2022-11-05T09:01:30.392Z,1.40
2022-11-05T09:03:58.209Z,1.10
2022-11-05T09:06:26.021Z,1.60
2022-11-05T09:08:53.694Z,1.10
2022-11-05T09:11:29.357Z,1.00
2022-11-05T09:14:10.467Z,1.00
2022-11-05T09:16:38.157Z,1.23
2022-11-05T09:19:05.845Z,1.35
2022-11-05T09:21:34.543Z,0.88
2022-11-05T09:24:02.218Z,1.27
2022-11-05T09:26:31.283Z,0.90
2022-11-05T09:28:59.056Z,1.10
2022-11-05T09:31:26.728Z,1.52
2022-11-05T09:33:54.406Z,2.15
2022-11-05T09:36:22.060Z,7.20
2022-11-05T09:38:49.774Z,3.45
2022-11-05T09:41:21.776Z,7.18
2022-11-05T09:43:52.524Z,11.07
2022-11-05T09:46:21.129Z,6.00
2022-11-05T09:48:50.711Z,10.32
2022-11-05T09:51:23.605Z,10.43
2022-11-05T09:53:51.592Z,12.13
2022-11-05T09:56:22.490Z,10.85
2022-11-05T09:58:54.317Z,6.60
2022-11-05T10:01:23.720Z,7.25
2022-11-05T10:03:53.033Z,7.72
2022-11-05T10:06:21.734Z,8.05
2022-11-05T10:08:52.416Z,6.88
2022-11-05T10:11:22.919Z,10.68
2022-11-05T10:13:53.601Z,7.72
2022-11-05T10:16:23.597Z,8.73
2022-11-05T10:18:53.496Z,7.75
2022-11-05T10:21:37.650Z,6.85
2022-11-05T10:24:14.022Z,16.27
2022-11-05T10:26:41.828Z,13.63
2022-11-05T10:29:12.412Z,9.82
2022-11-05T10:31:40.183Z,10.88
2022-11-05T10:34:08.534Z,9.43
2022-11-05T10:36:37.088Z,11.65
2022-11-05T10:39:11.771Z,14.80
2022-11-05T10:41:52.562Z,11.35
2022-11-05T10:44:27.428Z,8.60
2022-11-05T10:46:59.245Z,12.55
2022-11-05T10:49:35.354Z,10.55
2022-11-05T10:52:20.129Z,5.78
2022-11-05T10:54:47.805Z,6.18
2022-11-05T10:57:28.849Z,9.55
2022-11-05T11:00:23.269Z,8.93
2022-11-05T11:02:52.171Z,5.47
2022-11-05T11:05:21.227Z,6.05
2022-11-05T11:07:57.693Z,4.40
2022-11-05T11:10:25.575Z,5.97
2022-11-05T11:12:53.388Z,5.32
2022-11-05T11:15:27.487Z,6.00
2022-11-05T11:17:56.155Z,7.00
2022-11-05T11:20:28.998Z,5.00
2022-11-05T11:23:03.435Z,7.38
2022-11-05T11:25:32.669Z,7.55
2022-11-05T11:28:03.391Z,12.55
2022-11-05T11:30:32.513Z,4.60
2022-11-05T11:33:09.488Z,4.80
2022-11-05T11:35:38.670Z,4.43
2022-11-05T11:38:06.571Z,5.45
2022-11-05T11:40:35.118Z,8.32
2022-11-05T11:43:06.653Z,8.02
2022-11-05T11:45:37.867Z,7.00
2022-11-05T11:48:06.268Z,5.43
2022-11-05T11:50:36.356Z,3.40
2022-11-05T11:53:35.142Z,3.03
2022-11-05T11:56:05.518Z,4.75
2022-11-05T11:58:41.031Z,7.03
2022-11-05T12:01:23.799Z,10.40
2022-11-05T12:03:52.344Z,5.68
2022-11-05T12:06:25.714Z,3.78
2022-11-05T12:09:05.165Z,7.90
2022-11-05T12:11:37.155Z,6.50
2022-11-05T12:14:09.475Z,4.05
2022-11-05T12:16:45.672Z,9.80
2022-11-05T12:19:19.336Z,5.32
2022-11-05T12:21:53.366Z,7.93
2022-11-05T12:24:46.395Z,9.80
2022-11-05T12:27:21.638Z,6.47
2022-11-05T12:29:54.310Z,10.20
2022-11-05T12:33:07.405Z,9.65
2022-11-05T12:35:47.442Z,6.75
2022-11-05T12:38:23.698Z,7.90
2022-11-05T12:41:05.967Z,9.18
2022-11-05T12:43:39.425Z,7.30
2022-11-05T12:46:19.902Z,11.05
2022-11-05T12:49:06.208Z,9.25
2022-11-05T12:51:42.035Z,6.18
2022-11-05T12:54:18.303Z,5.82
2022-11-05T12:56:47.930Z,4.28
2022-11-05T12:59:19.400Z,8.52
2022-11-05T13:01:48.721Z,9.30
2022-11-05T13:04:22.050Z,10.00
2022-11-05T13:06:50.929Z,7.68
2022-11-05T13:09:30.714Z,6.03
2022-11-05T13:11:59.723Z,9.88
2022-11-05T13:14:28.599Z,9.20
2022-11-05T13:16:57.529Z,5.10
2022-11-05T13:19:28.175Z,4.07
2022-11-05T13:21:57.625Z,5.45
2022-11-05T13:24:27.273Z,9.07
2022-11-05T13:26:56.146Z,10.77
2022-11-05T13:29:27.774Z,6.00
2022-11-05T13:31:58.363Z,12.23
2022-11-05T13:34:27.479Z,6.38
2022-11-05T13:37:14.555Z,11.93
2022-11-05T13:39:44.785Z,12.57
2022-11-05T13:42:48.050Z,6.25
2022-11-05T13:45:44.601Z,9.07
2022-11-05T13:48:28.724Z,6.38
2022-11-05T13:51:23.517Z,8.90
2022-11-05T13:54:15.822Z,6.05
2022-11-05T13:56:53.222Z,5.72
2022-11-05T13:59:38.862Z,6.88
2022-11-05T14:02:12.727Z,12.13
2022-11-05T14:04:41.981Z,8.18
2022-11-05T14:07:12.470Z,8.75
2022-11-05T14:09:40.568Z,5.30
2022-11-05T14:12:15.036Z,6.63
2022-11-05T14:14:44.358Z,11.18
2022-11-05T14:17:15.998Z,6.05
2022-11-05T14:20:06.806Z,29.02
2022-11-05T14:22:40.589Z,6.45
2022-11-05T14:25:56.498Z,14.95
2022-11-05T14:28:42.550Z,10.88
2022-11-05T14:32:02.377Z,6.35
2022-11-05T14:34:40.120Z,6.28
2022-11-05T14:37:30.723Z,6.65
2022-11-05T14:40:20.568Z,9.15
2022-11-05T14:42:50.993Z,26.27
2022-11-05T14:45:26.967Z,12.85
2022-11-05T14:47:55.465Z,11.00
2022-11-05T14:50:26.771Z,7.40
2022-11-05T14:52:55.587Z,12.88
2022-11-05T14:55:34.140Z,11.68
2022-11-05T14:58:04.130Z,9.55
2022-11-05T15:00:43.162Z,21.42
2022-11-05T15:03:29.692Z,8.93
2022-11-05T15:06:05.569Z,11.05
2022-11-05T15:08:37.098Z,20.45
2022-11-05T15:11:15.682Z,13.50
2022-11-05T15:13:56.722Z,14.20
2022-11-05T15:16:25.532Z,11.52
2022-11-05T15:18:54.279Z,19.38
2022-11-05T15:21:22.093Z,24.58
2022-11-05T15:23:51.746Z,22.83
2022-11-05T15:26:23.602Z,11.02
2022-11-05T15:28:51.826Z,14.45
2022-11-05T15:31:30.168Z,10.88
2022-11-05T15:34:16.345Z,23.35
2022-11-05T15:36:47.901Z,13.60
2022-11-05T15:39:29.377Z,25.27
2022-11-05T15:41:59.382Z,11.93
2022-11-05T15:44:28.510Z,8.15
2022-11-05T15:47:13.588Z,21.23
2022-11-05T15:49:41.384Z,12.77
2022-11-05T15:52:12.009Z,49.67
2022-11-05T15:54:39.685Z,13.57
2022-11-05T15:57:18.850Z,11.82
2022-11-05T15:59:46.905Z,17.08
2022-11-05T16:02:29.588Z,12.85
2022-11-05T16:04:57.418Z,13.10
2022-11-05T16:07:25.082Z,12.80
2022-11-05T16:09:54.175Z,10.10
2022-11-05T16:12:31.193Z,12.93
2022-11-05T16:15:04.754Z,10.32
2022-11-05T16:17:34.012Z,9.68
2022-11-05T16:20:01.792Z,12.77
2022-11-05T16:22:44.993Z,39.03
2022-11-05T16:25:23.959Z,28.98
2022-11-05T16:27:52.993Z,21.83
2022-11-05T16:30:21.227Z,18.27
2022-11-05T16:32:48.886Z,16.08
2022-11-05T16:35:19.028Z,18.60
2022-11-05T16:37:51.786Z,19.73
2022-11-05T16:40:21.084Z,19.77
2022-11-05T16:42:51.126Z,17.55
2022-11-05T16:45:21.231Z,11.90
2022-11-05T16:47:50.011Z,12.30
2022-11-05T16:50:20.615Z,14.95
2022-11-05T16:52:48.281Z,20.48
2022-11-05T16:55:16.613Z,12.75
2022-11-05T16:57:44.881Z,14.95
2022-11-05T17:00:15.043Z,13.07
2022-11-05T17:02:44.162Z,13.80
2022-11-05T17:05:18.380Z,12.00
2022-11-05T17:07:46.077Z,10.10
2022-11-05T17:10:13.851Z,12.82
2022-11-05T17:12:42.376Z,12.45
2022-11-05T17:15:23.558Z,11.70
2022-11-05T17:17:52.671Z,8.38
2022-11-05T17:20:38.540Z,9.95
2022-11-05T17:23:07.405Z,11.13
2022-11-05T17:25:35.192Z,9.50
2022-11-05T17:28:02.939Z,8.95
2022-11-05T17:30:30.597Z,9.30
2022-11-05T17:32:59.593Z,10.35
2022-11-05T17:35:27.681Z,9.65
2022-11-05T17:37:55.363Z,10.43
2022-11-05T17:40:23.752Z,8.02
2022-11-05T17:42:51.921Z,9.77
2022-11-05T17:45:19.708Z,8.75
2022-11-05T17:47:47.368Z,9.00
2022-11-05T17:50:16.787Z,7.38
2022-11-05T17:52:44.537Z,6.90
2022-11-05T17:55:17.306Z,5.60
2022-11-05T17:57:46.246Z,9.05
2022-11-05T18:00:14.708Z,4.47
2022-11-05T18:02:43.157Z,6.78
2022-11-05T18:05:10.988Z,7.00
2022-11-05T18:07:40.002Z,6.68
2022-11-05T18:10:08.758Z,4.57
2022-11-05T18:12:36.550Z,6.78
2022-11-05T18:15:04.707Z,12.25
2022-11-05T18:17:32.364Z,6.10
2022-11-05T18:20:00.007Z,4.68
2022-11-05T18:22:27.861Z,5.95
2022-11-05T18:24:56.890Z,3.92
2022-11-05T18:27:27.416Z,5.72
2022-11-05T18:29:55.235Z,3.92
2022-11-05T18:32:22.899Z,8.35
2022-11-05T18:34:50.604Z,4.65
2022-11-05T18:37:18.285Z,5.13
2022-11-05T18:39:46.467Z,4.50
2022-11-05T18:42:15.472Z,4.97
2022-11-05T18:44:43.150Z,4.50
2022-11-05T18:47:10.817Z,5.55
2022-11-05T18:49:38.456Z,4.95
2022-11-05T18:52:06.545Z,3.70
2022-11-05T18:54:34.202Z,7.72
2022-11-05T18:57:02.241Z,3.78
2022-11-05T18:59:39.740Z,4.75
2022-11-05T19:02:07.820Z,3.83
2022-11-05T19:04:36.209Z,4.10
2022-11-05T19:07:05.358Z,4.40
2022-11-05T19:09:33.850Z,5.13
2022-11-05T19:12:01.569Z,4.82
2022-11-05T19:14:30.855Z,3.17
2022-11-05T19:16:58.624Z,6.93
2022-11-05T19:19:26.433Z,4.75
2022-11-05T19:21:54.209Z,13.02
2022-11-05T19:24:21.918Z,4.70
2022-11-05T19:26:50.328Z,10.20
2022-11-05T19:29:18.119Z,2.75
2022-11-05T19:31:47.212Z,4.75
2022-11-05T19:34:15.126Z,5.53
2022-11-05T19:36:43.158Z,3.10
2022-11-05T19:39:12.956Z,3.92
2022-11-05T19:41:40.620Z,2.25
2022-11-05T19:44:08.508Z,3.38
2022-11-05T19:46:36.260Z,2.58
2022-11-05T19:49:05.291Z,2.67
2022-11-05T19:51:33.162Z,5.55
2022-11-05T19:54:01.312Z,2.47
2022-11-05T19:56:30.475Z,3.08
2022-11-05T19:58:58.393Z,2.28
2022-11-05T20:01:26.761Z,3.35
2022-11-05T20:03:55.165Z,3.38
2022-11-05T20:06:26.352Z,4.00
2022-11-05T20:09:20.118Z,6.93
2022-11-05T20:11:41.742Z,2.22
2022-11-05T20:14:10.405Z,3.78
2022-11-05T20:16:39.912Z,2.50
2022-11-05T20:19:08.771Z,2.65
2022-11-05T20:21:39.237Z,4.03
2022-11-05T20:24:07.350Z,2.55
2022-11-05T20:26:36.325Z,2.47
2022-11-05T20:29:04.090Z,7.85
2022-11-05T20:31:32.042Z,3.33
2022-11-05T20:33:59.769Z,3.22
2022-11-05T20:36:27.578Z,4.93
2022-11-05T20:38:57.862Z,2.50
2022-11-05T20:41:25.698Z,3.97
2022-11-05T20:43:53.511Z,2.00
2022-11-05T20:46:21.955Z,3.25
2022-11-05T20:48:49.754Z,2.17
2022-11-05T20:51:18.362Z,3.40
2022-11-05T20:53:46.789Z,5.15
2022-11-05T20:56:18.344Z,2.65
2022-11-05T20:58:46.193Z,2.70
2022-11-05T21:01:15.483Z,3.10
2022-11-05T21:03:43.402Z,2.63
2022-11-05T21:06:11.328Z,2.95
2022-11-05T21:08:39.051Z,1.70
2022-11-05T21:11:07.007Z,2.45
2022-11-05T21:13:36.363Z,2.67
2022-11-05T21:16:05.721Z,2.10
2022-11-05T21:18:34.433Z,2.33
2022-11-05T21:21:05.588Z,2.50
2022-11-05T21:23:33.266Z,1.90
2022-11-05T21:26:04.611Z,2.83
2022-11-05T21:28:32.376Z,3.60
2022-11-05T21:31:03.227Z,4.13
2022-11-05T21:33:30.974Z,4.32
2022-11-05T21:35:58.848Z,4.32
2022-11-05T21:38:26.666Z,4.18
2022-11-05T21:40:54.437Z,3.67
2022-11-05T21:43:22.164Z,2.30
2022-11-05T21:45:49.842Z,2.67
2022-11-05T21:48:18.912Z,2.80
2022-11-05T21:51:04.209Z,2.83
2022-11-05T21:53:49.680Z,2.35
2022-11-05T21:56:36.744Z,2.97
2022-11-05T21:59:22.281Z,2.17
2022-11-05T22:01:50.160Z,2.65
2022-11-05T22:04:19.216Z,3.55
2022-11-05T22:06:46.973Z,2.65
2022-11-05T22:09:14.674Z,2.80
2022-11-05T22:11:42.425Z,2.50
2022-11-05T22:14:10.117Z,4.95
2022-11-05T22:16:37.859Z,2.15
2022-11-05T22:19:05.545Z,2.50
2022-11-05T22:21:34.602Z,2.00
2022-11-05T22:24:02.354Z,2.85
2022-11-05T22:26:30.274Z,2.35
2022-11-05T22:28:57.985Z,2.58
2022-11-05T22:31:25.666Z,2.30
2022-11-05T22:33:53.611Z,1.73
2022-11-05T22:36:22.110Z,2.15
2022-11-05T22:38:51.117Z,3.30
2022-11-05T22:41:20.250Z,2.17
2022-11-05T22:43:47.930Z,2.67
2022-11-05T22:46:16.540Z,2.65
2022-11-05T22:48:44.410Z,2.38
2022-11-05T22:51:13.490Z,2.15
2022-11-05T22:53:41.353Z,2.17
2022-11-05T22:56:11.818Z,2.08
2022-11-05T22:58:39.496Z,2.50
2022-11-05T23:01:07.781Z,2.65
2022-11-05T23:03:35.627Z,2.50
2022-11-05T23:06:04.053Z,2.58
2022-11-05T23:08:49.624Z,2.22
2022-11-05T23:11:38.532Z,2.65
2022-11-05T23:14:06.733Z,2.50
2022-11-05T23:16:51.924Z,2.03
2022-11-05T23:19:37.348Z,2.45
2022-11-05T23:22:22.767Z,2.92
2022-11-05T23:24:50.493Z,2.60
2022-11-05T23:27:19.486Z,2.53
2022-11-05T23:29:47.208Z,2.78
2022-11-05T23:32:28.298Z,2.92
2022-11-05T23:34:56.726Z,3.47
2022-11-05T23:37:42.651Z,3.47
2022-11-05T23:40:12.059Z,3.65
2022-11-05T23:42:59.370Z,3.67
2022-11-05T23:45:44.930Z,4.05
2022-11-05T23:48:17.752Z,4.72
2022-11-05T23:50:46.921Z,4.95
2022-11-05T23:53:14.642Z,5.55
2022-11-05T23:55:42.384Z,5.97
2022-11-05T23:58:12.075Z,6.40
